PIMOHWEATHER Station Historical Data
Daily Summary for August 26, 2020 Units:  Metric    English   Both
Daily Weekly Monthly Yearly
  High: Low: Average:
Temperature: 33.0 °C 29.0 °C 30.8 °C
Dew Point: 26.0 °C 24.0 °C 25.4 °C
Humidity: 84% 61% 74%
Wind Speed: 47km/h 0km/h 19.3km/h
Wind Gust: 61km/h - -
Wind- - WSW
Pressure: 1013.9 hPa 1009.9 hPa -
Precipitation: 0.00 mm    
 
 
Tabular Data for August 26, 2020
Time Temperature Dew Point Pressure Wind Wind Speed Wind Gust Humidity Rainfall Rate (Hourly) solar
00:04 30.0 °C 26.0 °C 1013.9 hPa SW 14 km/h 20 km/h 82% 0.00 mm 0.00 W/m2
00:09 30.0 °C 26.0 °C 1013.7 hPa WSW 10 km/h 16 km/h 82% 0.00 mm 0.00 W/m2
00:14 30.0 °C 26.0 °C 1013.7 hPa SW 10 km/h 12 km/h 82% 0.00 mm 0.00 W/m2
00:24 30.0 °C 26.0 °C 1013.7 hPa SW 10 km/h 16 km/h 80% 0.00 mm 0.00 W/m2
00:29 30.0 °C 26.0 °C 1013.7 hPa SW 18 km/h 20 km/h 81% 0.00 mm 0.00 W/m2
00:34 30.0 °C 26.0 °C 1013.6 hPa SW 17 km/h 20 km/h 81% 0.00 mm 0.00 W/m2
00:39 30.0 °C 26.0 °C 1013.4 hPa West 17 km/h 24 km/h 80% 0.00 mm 0.00 W/m2
00:44 30.0 °C 26.0 °C 1013.4 hPa SW 12 km/h 24 km/h 79% 0.00 mm 0.00 W/m2
00:49 30.0 °C 26.0 °C 1013.2 hPa WNW 10 km/h 12 km/h 79% 0.00 mm 0.00 W/m2
00:54 30.0 °C 26.0 °C 1013.3 hPa NW 13 km/h 20 km/h 78% 0.00 mm 0.00 W/m2
00:59 30.0 °C 25.0 °C 1013.2 hPa NW 10 km/h 16 km/h 78% 0.00 mm 0.00 W/m2
01:04 29.0 °C 25.0 °C 1013.1 hPa NW 6 km/h 8 km/h 78% 0.00 mm 0.00 W/m2
01:09 30.0 °C 25.0 °C 1013.1 hPa NW 6 km/h 12 km/h 78% 0.00 mm 0.00 W/m2
01:14 30.0 °C 25.0 °C 1013.0 hPa NW 13 km/h 20 km/h 78% 0.00 mm 0.00 W/m2
01:19 30.0 °C 25.0 °C 1013.0 hPa NW 6 km/h 12 km/h 78% 0.00 mm 0.00 W/m2
01:24 30.0 °C 25.0 °C 1012.8 hPa West 12 km/h 16 km/h 77% 0.00 mm 0.00 W/m2
01:29 30.0 °C 25.0 °C 1012.8 hPa WNW 4 km/h 8 km/h 77% 0.00 mm 0.00 W/m2
01:34 30.0 °C 25.0 °C 1012.7 hPa WNW 5 km/h 8 km/h 77% 0.00 mm 0.00 W/m2
01:39 30.0 °C 25.0 °C 1012.6 hPa WSW 6 km/h 12 km/h 77% 0.00 mm 0.00 W/m2
01:44 30.0 °C 25.0 °C 1012.6 hPa West 6 km/h 8 km/h 77% 0.00 mm 0.00 W/m2
01:49 30.0 °C 25.0 °C 1012.5 hPa WSW 5 km/h 8 km/h 77% 0.00 mm 0.00 W/m2
01:54 30.0 °C 25.0 °C 1012.4 hPa West 4 km/h 8 km/h 76% 0.00 mm 0.00 W/m2
01:59 30.0 °C 25.0 °C 1012.3 hPa WSW 5 km/h 8 km/h 76% 0.00 mm 0.00 W/m2
02:00 30.0 °C 25.0 °C 1012.2 hPa WSW 3 km/h 4 km/h 76% 0.00 mm 0.00 W/m2
02:09 30.0 °C 25.0 °C 1012.1 hPa Calm     76% 0.00 mm 0.00 W/m2
02:14 30.0 °C 25.0 °C 1012.2 hPa NW 2 km/h 4 km/h 77% 0.00 mm 0.00 W/m2
02:19 30.0 °C 25.0 °C 1012.1 hPa NW 2 km/h 4 km/h 77% 0.00 mm 0.00 W/m2
02:24 29.0 °C 25.0 °C 1011.9 hPa WNW 1 km/h 4 km/h 77% 0.00 mm 0.00 W/m2
02:29 29.0 °C 25.0 °C 1012.1 hPa WNW 4 km/h 4 km/h 77% 0.00 mm 0.00 W/m2
02:34 29.0 °C 25.0 °C 1012.1 hPa WNW 2 km/h 4 km/h 77% 0.00 mm 0.00 W/m2
02:39 30.0 °C 25.0 °C 1012.0 hPa WNW 3 km/h 4 km/h 77% 0.00 mm 0.00 W/m2
02:44 30.0 °C 25.0 °C 1011.9 hPa NW 5 km/h 8 km/h 77% 0.00 mm 0.00 W/m2
02:49 30.0 °C 25.0 °C 1012.0 hPa WSW 6 km/h 8 km/h 77% 0.00 mm 0.00 W/m2
02:54 30.0 °C 26.0 °C 1012.0 hPa West 8 km/h 12 km/h 79% 0.00 mm 0.00 W/m2
02:59 30.0 °C 26.0 °C 1012.0 hPa WNW 1 km/h 4 km/h 79% 0.00 mm 0.00 W/m2
03:04 30.0 °C 26.0 °C 1011.9 hPa West 8 km/h 8 km/h 79% 0.00 mm 0.00 W/m2
03:09 29.0 °C 25.0 °C 1011.8 hPa WSW 5 km/h 8 km/h 79% 0.00 mm 0.00 W/m2
03:14 29.0 °C 25.0 °C 1011.9 hPa West 4 km/h 8 km/h 79% 0.00 mm 0.00 W/m2
03:19 29.0 °C 25.0 °C 1011.9 hPa NNW 11 km/h 16 km/h 79% 0.00 mm 0.00 W/m2
03:24 29.0 °C 25.0 °C 1012.1 hPa NW 13 km/h 16 km/h 79% 0.00 mm 0.00 W/m2
03:29 29.0 °C 25.0 °C 1011.9 hPa NNW 12 km/h 16 km/h 79% 0.00 mm 0.00 W/m2
03:34 29.0 °C 25.0 °C 1012.0 hPa NNW 10 km/h 12 km/h 79% 0.00 mm 0.00 W/m2
03:39 29.0 °C 25.0 °C 1012.0 hPa NNW 14 km/h 20 km/h 79% 0.00 mm 0.00 W/m2
03:44 29.0 °C 25.0 °C 1012.1 hPa NNW 15 km/h 16 km/h 79% 0.00 mm 0.00 W/m2
03:49 29.0 °C 25.0 °C 1012.1 hPa NW 10 km/h 12 km/h 80% 0.00 mm 0.00 W/m2
03:54 29.0 °C 25.0 °C 1012.0 hPa NNW 12 km/h 20 km/h 80% 0.00 mm 0.00 W/m2
03:59 29.0 °C 25.0 °C 1012.1 hPa NNW 15 km/h 16 km/h 80% 0.00 mm 0.00 W/m2
04:04 29.0 °C 25.0 °C 1012.0 hPa North 13 km/h 20 km/h 80% 0.00 mm 0.00 W/m2
04:09 29.0 °C 25.0 °C 1012.0 hPa North 15 km/h 16 km/h 80% 0.00 mm 0.00 W/m2
04:14 29.0 °C 25.0 °C 1012.3 hPa North 11 km/h 16 km/h 80% 0.00 mm 0.00 W/m2
04:19 29.0 °C 25.0 °C 1012.1 hPa Calm     80% 0.00 mm 0.00 W/m2
04:24 29.0 °C 25.0 °C 1012.0 hPa NNW 3 km/h 4 km/h 80% 0.00 mm 0.00 W/m2
04:29 29.0 °C 25.0 °C 1012.1 hPa NNW 4 km/h 4 km/h 80% 0.00 mm 0.00 W/m2
04:34 29.0 °C 25.0 °C 1012.1 hPa Calm     80% 0.00 mm 0.00 W/m2
04:39 29.0 °C 25.0 °C 1012.2 hPa NNW 3 km/h 4 km/h 81% 0.00 mm 0.00 W/m2
04:44 29.0 °C 25.0 °C 1012.2 hPa Calm     81% 0.00 mm 0.00 W/m2
04:49 29.0 °C 25.0 °C 1012.3 hPa Calm     81% 0.00 mm 0.00 W/m2
04:54 29.0 °C 25.0 °C 1012.3 hPa Calm     80% 0.00 mm 0.00 W/m2
04:59 29.0 °C 25.0 °C 1012.3 hPa NNW 1 km/h 4 km/h 81% 0.00 mm 0.00 W/m2
05:04 29.0 °C 25.0 °C 1012.2 hPa SSW 8 km/h 12 km/h 82% 0.00 mm 0.00 W/m2
05:09 29.0 °C 26.0 °C 1012.3 hPa SSW 14 km/h 16 km/h 82% 0.00 mm 0.00 W/m2
05:14 29.0 °C 26.0 °C 1012.3 hPa South 14 km/h 16 km/h 82% 0.00 mm 0.00 W/m2
05:19 29.0 °C 26.0 °C 1012.3 hPa South 15 km/h 16 km/h 83% 0.00 mm 0.00 W/m2
05:24 29.0 °C 26.0 °C 1012.2 hPa SSW 11 km/h 16 km/h 83% 0.00 mm 0.00 W/m2
05:29 29.0 °C 26.0 °C 1012.1 hPa South 9 km/h 12 km/h 83% 0.00 mm 0.00 W/m2
05:34 29.0 °C 26.0 °C 1012.3 hPa SSW 13 km/h 16 km/h 83% 0.00 mm 0.00 W/m2
05:39 29.0 °C 26.0 °C 1012.3 hPa SSW 12 km/h 12 km/h 83% 0.00 mm 0.00 W/m2
05:44 29.0 °C 26.0 °C 1012.3 hPa SSW 14 km/h 16 km/h 84% 0.00 mm 0.85 W/m2
05:49 29.0 °C 26.0 °C 1012.4 hPa SSW 8 km/h 12 km/h 84% 0.00 mm 2.57 W/m2
05:54 29.0 °C 26.0 °C 1012.3 hPa SSW 13 km/h 16 km/h 84% 0.00 mm 7.34 W/m2
05:59 29.0 °C 26.0 °C 1012.4 hPa SSW 10 km/h 12 km/h 84% 0.00 mm 12.48 W/m2
06:04 29.0 °C 26.0 °C 1012.3 hPa SW 10 km/h 16 km/h 84% 0.00 mm 18.60 W/m2
06:09 29.0 °C 26.0 °C 1012.4 hPa SSW 14 km/h 16 km/h 84% 0.00 mm 28.63 W/m2
06:14 29.0 °C 26.0 °C 1012.6 hPa SSW 18 km/h 20 km/h 84% 0.00 mm 33.76 W/m2
06:19 29.0 °C 26.0 °C 1012.6 hPa SW 13 km/h 16 km/h 84% 0.00 mm 36.33 W/m2
06:24 29.0 °C 26.0 °C 1012.5 hPa SSW 15 km/h 24 km/h 83% 0.00 mm 30.34 W/m2
06:29 29.0 °C 26.0 °C 1012.5 hPa West 11 km/h 16 km/h 82% 0.00 mm 38.17 W/m2
06:34 29.0 °C 26.0 °C 1012.6 hPa West 9 km/h 12 km/h 82% 0.00 mm 48.07 W/m2
06:39 29.0 °C 26.0 °C 1012.5 hPa West 8 km/h 12 km/h 81% 0.00 mm 55.90 W/m2
06:44 29.0 °C 26.0 °C 1012.6 hPa WNW 9 km/h 12 km/h 80% 0.00 mm 58.97 W/m2
06:49 29.0 °C 26.0 °C 1012.7 hPa West 8 km/h 12 km/h 80% 0.00 mm 65.45 W/m2
06:54 29.0 °C 26.0 °C 1012.8 hPa WNW 10 km/h 16 km/h 80% 0.00 mm 81.97 W/m2
06:59 30.0 °C 26.0 °C 1012.7 hPa West 14 km/h 16 km/h 79% 0.00 mm 94.93 W/m2
07:04 30.0 °C 26.0 °C 1012.7 hPa NW 9 km/h 12 km/h 79% 0.00 mm 83.68 W/m2
07:09 30.0 °C 26.0 °C 1013.0 hPa West 12 km/h 20 km/h 79% 0.00 mm 85.39 W/m2
07:14 30.0 °C 26.0 °C 1013.0 hPa West 10 km/h 12 km/h 79% 0.00 mm 81.48 W/m2
07:19 30.0 °C 26.0 °C 1012.9 hPa WSW 14 km/h 16 km/h 78% 0.00 mm 54.19 W/m2
07:24 30.0 °C 25.0 °C 1013.0 hPa SW 17 km/h 24 km/h 78% 0.00 mm 99.70 W/m2
07:29 30.0 °C 26.0 °C 1013.1 hPa WSW 22 km/h 24 km/h 78% 0.00 mm 135.30 W/m2
07:34 30.0 °C 26.0 °C 1012.9 hPa SSW 18 km/h 28 km/h 78% 0.00 mm 168.70 W/m2
07:39 30.0 °C 26.0 °C 1012.8 hPa SW 23 km/h 32 km/h 77% 0.00 mm 100.56 W/m2
07:44 30.0 °C 25.0 °C 1013.0 hPa WSW 21 km/h 28 km/h 77% 0.00 mm 325.78 W/m2
07:49 30.0 °C 26.0 °C 1013.0 hPa WSW 21 km/h 24 km/h 76% 0.00 mm 369.08 W/m2
07:54 31.0 °C 25.0 °C 1013.1 hPa SW 15 km/h 20 km/h 74% 0.00 mm 387.32 W/m2
07:59 31.0 °C 26.0 °C 1013.1 hPa SW 22 km/h 28 km/h 74% 0.00 mm 461.08 W/m2
08:04 31.0 °C 26.0 °C 1013.2 hPa West 12 km/h 20 km/h 73% 0.00 mm 471.11 W/m2
08:09 31.0 °C 26.0 °C 1013.2 hPa WSW 23 km/h 28 km/h 74% 0.00 mm 471.97 W/m2
08:14 31.0 °C 26.0 °C 1013.2 hPa WSW 26 km/h 32 km/h 74% 0.00 mm 592.47 W/m2
08:19 31.0 °C 26.0 °C 1013.2 hPa SW 22 km/h 28 km/h 73% 0.00 mm 584.77 W/m2
08:24 31.0 °C 26.0 °C 1013.3 hPa WSW 25 km/h 36 km/h 73% 0.00 mm 240.27 W/m2
08:29 31.0 °C 26.0 °C 1013.4 hPa WSW 17 km/h 24 km/h 73% 0.00 mm 592.11 W/m2
08:34 31.0 °C 25.0 °C 1013.3 hPa West 13 km/h 28 km/h 72% 0.00 mm 213.35 W/m2
08:39 31.0 °C 25.0 °C 1013.4 hPa West 19 km/h 28 km/h 72% 0.00 mm 648.87 W/m2
08:44 31.0 °C 25.0 °C 1013.3 hPa SW 14 km/h 20 km/h 72% 0.00 mm 238.92 W/m2
08:49 31.0 °C 25.0 °C 1013.3 hPa WNW 21 km/h 28 km/h 73% 0.00 mm 332.27 W/m2
08:54 31.0 °C 25.0 °C 1013.4 hPa WSW 21 km/h 28 km/h 73% 0.00 mm 313.54 W/m2
08:59 31.0 °C 25.0 °C 1013.4 hPa WSW 31 km/h 40 km/h 73% 0.00 mm 698.78 W/m2
09:04 31.0 °C 25.0 °C 1013.4 hPa SW 31 km/h 40 km/h 72% 0.00 mm 674.93 W/m2
09:09 31.0 °C 25.0 °C 1013.3 hPa SW 23 km/h 32 km/h 72% 0.00 mm 683.24 W/m2
09:14 31.0 °C 25.0 °C 1013.6 hPa SW 28 km/h 36 km/h 71% 0.00 mm 663.18 W/m2
09:19 32.0 °C 25.0 °C 1013.6 hPa SW 31 km/h 40 km/h 70% 0.00 mm 706.24 W/m2
09:24 31.0 °C 25.0 °C 1013.4 hPa SW 33 km/h 44 km/h 71% 0.00 mm 676.64 W/m2
09:29 32.0 °C 25.0 °C 1013.2 hPa SW 29 km/h 40 km/h 69% 0.00 mm 757.87 W/m2
09:34 32.0 °C 25.0 °C 1013.2 hPa WSW 38 km/h 53 km/h 69% 0.00 mm 813.78 W/m2
09:39 32.0 °C 25.0 °C 1013.4 hPa SW 24 km/h 36 km/h 69% 0.00 mm 787.72 W/m2
09:44 32.0 °C 25.0 °C 1013.2 hPa SW 32 km/h 40 km/h 69% 0.00 mm 724.84 W/m2
09:49 32.0 °C 25.0 °C 1013.1 hPa WSW 30 km/h 36 km/h 70% 0.00 mm 690.96 W/m2
09:54 32.0 °C 26.0 °C 1013.0 hPa SW 32 km/h 40 km/h 69% 0.00 mm 671.87 W/m2
09:59 32.0 °C 26.0 °C 1013.0 hPa SW 33 km/h 40 km/h 72% 0.00 mm 680.55 W/m2
10:04 32.0 °C 26.0 °C 1012.9 hPa SW 30 km/h 36 km/h 70% 0.00 mm 720.56 W/m2
10:09 32.0 °C 26.0 °C 1012.9 hPa SSW 28 km/h 32 km/h 70% 0.00 mm 737.81 W/m2
10:14 32.0 °C 26.0 °C 1012.8 hPa WSW 25 km/h 36 km/h 71% 0.00 mm 864.55 W/m2
10:19 32.0 °C 26.0 °C 1012.9 hPa West 20 km/h 28 km/h 70% 0.00 mm 891.83 W/m2
10:24 33.0 °C 26.0 °C 1013.0 hPa NNW 27 km/h 32 km/h 70% 0.00 mm 889.75 W/m2
10:29 33.0 °C 26.0 °C 1013.0 hPa WNW 25 km/h 32 km/h 69% 0.00 mm 892.68 W/m2
10:34 33.0 °C 26.0 °C 1013.0 hPa NW 15 km/h 28 km/h 68% 0.00 mm 932.20 W/m2
10:39 33.0 °C 26.0 °C 1012.9 hPa WNW 21 km/h 24 km/h 69% 0.00 mm 949.57 W/m2
10:44 32.0 °C 26.0 °C 1012.8 hPa WSW 20 km/h 32 km/h 68% 0.00 mm 843.26 W/m2
10:49 33.0 °C 26.0 °C 1012.6 hPa WNW 14 km/h 20 km/h 66% 0.00 mm 851.46 W/m2
10:54 33.0 °C 26.0 °C 1012.6 hPa SW 22 km/h 32 km/h 68% 0.00 mm 967.31 W/m2
10:59 33.0 °C 26.0 °C 1012.6 hPa WSW 23 km/h 28 km/h 70% 0.00 mm 925.22 W/m2
11:04 33.0 °C 26.0 °C 1012.5 hPa SW 31 km/h 48 km/h 67% 0.00 mm 873.24 W/m2
11:09 33.0 °C 26.0 °C 1012.4 hPa West 21 km/h 32 km/h 69% 0.00 mm 858.43 W/m2
11:14 33.0 °C 26.0 °C 1012.4 hPa North 16 km/h 24 km/h 67% 0.00 mm 862.83 W/m2
11:19 33.0 °C 26.0 °C 1012.3 hPa SW 26 km/h 40 km/h 67% 0.00 mm 848.03 W/m2
11:24 33.0 °C 26.0 °C 1012.3 hPa SW 30 km/h 44 km/h 69% 0.00 mm 859.29 W/m2
11:29 33.0 °C 26.0 °C 1012.3 hPa SW 30 km/h 40 km/h 67% 0.00 mm 822.46 W/m2
11:34 33.0 °C 26.0 °C 1012.3 hPa SW 30 km/h 40 km/h 68% 0.00 mm 813.78 W/m2
11:39 32.0 °C 26.0 °C 1012.1 hPa SW 40 km/h 48 km/h 70% 0.00 mm 741.36 W/m2
11:44 32.0 °C 26.0 °C 1012.2 hPa SW 27 km/h 40 km/h 68% 0.00 mm 755.67 W/m2
11:49 33.0 °C 25.0 °C 1012.1 hPa SW 21 km/h 24 km/h 67% 0.00 mm 788.58 W/m2
11:54 33.0 °C 26.0 °C 1011.9 hPa SW 31 km/h 36 km/h 68% 0.00 mm 830.66 W/m2
11:59 33.0 °C 26.0 °C 1011.8 hPa SW 32 km/h 44 km/h 69% 0.00 mm 809.87 W/m2
12:04 32.0 °C 26.0 °C 1011.6 hPa SW 35 km/h 44 km/h 68% 0.00 mm 797.26 W/m2
12:09 33.0 °C 26.0 °C 1011.6 hPa SW 33 km/h 44 km/h 67% 0.00 mm 770.84 W/m2
12:14 33.0 °C 26.0 °C 1011.5 hPa WSW 40 km/h 48 km/h 69% 0.00 mm 794.70 W/m2
12:19 33.0 °C 26.0 °C 1011.6 hPa SW 34 km/h 53 km/h 66% 0.00 mm 817.70 W/m2
12:24 33.0 °C 26.0 °C 1011.6 hPa WSW 26 km/h 36 km/h 67% 0.00 mm 870.17 W/m2
12:29 33.0 °C 26.0 °C 1011.4 hPa SW 35 km/h 53 km/h 68% 0.00 mm 909.20 W/m2
12:34 33.0 °C 26.0 °C 1011.5 hPa SW 38 km/h 48 km/h 68% 0.00 mm 886.20 W/m2
12:39 32.0 °C 26.0 °C 1011.4 hPa SW 40 km/h 48 km/h 69% 0.00 mm 855.37 W/m2
12:44 32.0 °C 26.0 °C 1011.3 hPa SW 45 km/h 56 km/h 69% 0.00 mm 829.44 W/m2
12:49 33.0 °C 25.0 °C 1011.2 hPa WSW 33 km/h 40 km/h 66% 0.00 mm 797.26 W/m2
12:54 33.0 °C 25.0 °C 1011.2 hPa WSW 45 km/h 61 km/h 65% 0.00 mm 776.95 W/m2
12:59 33.0 °C 25.0 °C 1010.9 hPa SW 35 km/h 53 km/h 66% 0.00 mm 753.46 W/m2
13:04 32.0 °C 25.0 °C 1010.9 hPa SW 45 km/h 53 km/h 66% 0.00 mm 743.07 W/m2
13:09 32.0 °C 25.0 °C 1011.0 hPa SW 31 km/h 44 km/h 68% 0.00 mm 733.53 W/m2
13:14 32.0 °C 25.0 °C 1010.7 hPa SW 30 km/h 44 km/h 66% 0.00 mm 740.87 W/m2
13:19 33.0 °C 25.0 °C 1010.7 hPa SW 32 km/h 48 km/h 65% 0.00 mm 738.78 W/m2
13:24 33.0 °C 25.0 °C 1010.7 hPa SW 39 km/h 53 km/h 64% 0.00 mm 726.19 W/m2
13:29 32.0 °C 25.0 °C 1010.6 hPa SW 45 km/h 56 km/h 65% 0.00 mm 712.73 W/m2
13:34 32.0 °C 25.0 °C 1010.5 hPa SW 34 km/h 48 km/h 66% 0.00 mm 685.82 W/m2
13:39 32.0 °C 25.0 °C 1010.5 hPa SW 47 km/h 61 km/h 65% 0.00 mm 664.16 W/m2
13:44 33.0 °C 25.0 °C 1010.3 hPa SW 36 km/h 56 km/h 65% 0.00 mm 651.07 W/m2
13:49 33.0 °C 24.0 °C 1010.3 hPa SW 37 km/h 48 km/h 61% 0.00 mm 648.01 W/m2
13:54 33.0 °C 24.0 °C 1010.3 hPa WSW 35 km/h 48 km/h 62% 0.00 mm 633.33 W/m2
13:59 33.0 °C 25.0 °C 1010.3 hPa SW 30 km/h 40 km/h 65% 0.00 mm 680.19 W/m2
14:04 33.0 °C 25.0 °C 1010.1 hPa SW 31 km/h 48 km/h 64% 0.00 mm 670.65 W/m2
14:09 33.0 °C 25.0 °C 1010.2 hPa SW 38 km/h 48 km/h 63% 0.00 mm 674.07 W/m2
14:14 33.0 °C 26.0 °C 1010.3 hPa SW 45 km/h 53 km/h 65% 0.00 mm 661.96 W/m2
14:19 32.0 °C 24.0 °C 1010.1 hPa SW 40 km/h 48 km/h 63% 0.00 mm 648.87 W/m2
14:24 33.0 °C 24.0 °C 1010.0 hPa SW 41 km/h 56 km/h 62% 0.00 mm 645.45 W/m2
14:29 33.0 °C 25.0 °C 1010.0 hPa SW 35 km/h 44 km/h 63% 0.00 mm 626.36 W/m2
14:34 33.0 °C 25.0 °C 1010.0 hPa SW 40 km/h 61 km/h 65% 0.00 mm 591.25 W/m2
14:39 33.0 °C 25.0 °C 1010.0 hPa SW 39 km/h 44 km/h 65% 0.00 mm 578.16 W/m2
14:44 33.0 °C 25.0 °C 1009.9 hPa SW 31 km/h 44 km/h 64% 0.00 mm 566.54 W/m2
14:49 33.0 °C 25.0 °C 1009.9 hPa SW 34 km/h 48 km/h 65% 0.00 mm 553.45 W/m2
14:54 33.0 °C 25.0 °C 1009.9 hPa SW 43 km/h 56 km/h 65% 0.00 mm 557.36 W/m2
14:59 33.0 °C 26.0 °C 1010.0 hPa WSW 37 km/h 44 km/h 67% 0.00 mm 555.65 W/m2
15:04 33.0 °C 26.0 °C 1010.1 hPa SW 31 km/h 40 km/h 67% 0.00 mm 540.84 W/m2
15:09 33.0 °C 26.0 °C 1010.2 hPa SW 37 km/h 56 km/h 67% 0.00 mm 496.20 W/m2
15:14 32.0 °C 25.0 °C 1010.2 hPa SW 45 km/h 56 km/h 67% 0.00 mm 520.54 W/m2
15:19 32.0 °C 25.0 °C 1010.3 hPa SW 35 km/h 53 km/h 66% 0.00 mm 492.77 W/m2
15:24 33.0 °C 25.0 °C 1010.3 hPa SW 31 km/h 53 km/h 65% 0.00 mm 479.31 W/m2
15:29 33.0 °C 25.0 °C 1010.3 hPa WSW 35 km/h 44 km/h 66% 0.00 mm 436.37 W/m2
15:34 33.0 °C 25.0 °C 1010.4 hPa SW 19 km/h 28 km/h 65% 0.00 mm 431.97 W/m2
15:39 33.0 °C 26.0 °C 1010.4 hPa SW 39 km/h 48 km/h 66% 0.00 mm 411.17 W/m2
15:44 32.0 °C 25.0 °C 1010.3 hPa SW 32 km/h 48 km/h 67% 0.00 mm 402.49 W/m2
15:49 32.0 °C 25.0 °C 1010.3 hPa WSW 36 km/h 44 km/h 68% 0.00 mm 376.91 W/m2
15:54 32.0 °C 25.0 °C 1010.4 hPa SW 36 km/h 48 km/h 67% 0.00 mm 367.01 W/m2
15:59 32.0 °C 25.0 °C 1010.5 hPa WSW 29 km/h 53 km/h 66% 0.00 mm 337.40 W/m2
16:04 32.0 °C 26.0 °C 1010.5 hPa WSW 41 km/h 48 km/h 70% 0.00 mm 299.23 W/m2
16:09 32.0 °C 26.0 °C 1010.4 hPa SW 33 km/h 44 km/h 70% 0.00 mm 278.93 W/m2
16:14 32.0 °C 26.0 °C 1010.4 hPa SW 32 km/h 44 km/h 71% 0.00 mm 269.75 W/m2
16:19 32.0 °C 26.0 °C 1010.4 hPa WSW 37 km/h 48 km/h 71% 0.00 mm 243.69 W/m2
16:24 32.0 °C 26.0 °C 1010.4 hPa SW 29 km/h 36 km/h 70% 0.00 mm 200.75 W/m2
16:29 32.0 °C 26.0 °C 1010.4 hPa SW 34 km/h 44 km/h 69% 0.00 mm 194.27 W/m2
16:34 32.0 °C 26.0 °C 1010.3 hPa WSW 34 km/h 40 km/h 71% 0.00 mm 186.07 W/m2
16:39 32.0 °C 26.0 °C 1010.6 hPa SW 29 km/h 36 km/h 71% 0.00 mm 182.53 W/m2
16:44 32.0 °C 26.0 °C 1010.6 hPa SW 33 km/h 40 km/h 71% 0.00 mm 174.33 W/m2
16:49 32.0 °C 26.0 °C 1010.5 hPa SW 24 km/h 36 km/h 71% 0.00 mm 165.27 W/m2
16:54 32.0 °C 26.0 °C 1010.3 hPa South 26 km/h 32 km/h 71% 0.00 mm 140.07 W/m2
16:59 32.0 °C 26.0 °C 1010.7 hPa WSW 26 km/h 32 km/h 71% 0.00 mm 137.02 W/m2
17:04 32.0 °C 26.0 °C 1010.7 hPa SW 26 km/h 36 km/h 71% 0.00 mm 125.27 W/m2
17:09 32.0 °C 25.0 °C 1010.7 hPa SW 18 km/h 24 km/h 69% 0.00 mm 91.87 W/m2
17:14 32.0 °C 26.0 °C 1010.8 hPa SW 27 km/h 36 km/h 70% 0.00 mm 73.28 W/m2
17:19 32.0 °C 26.0 °C 1010.8 hPa WSW 23 km/h 28 km/h 70% 0.00 mm 59.33 W/m2
17:24 32.0 °C 25.0 °C 1011.1 hPa SW 15 km/h 20 km/h 70% 0.00 mm 49.79 W/m2
17:29 31.0 °C 25.0 °C 1011.2 hPa SW 24 km/h 32 km/h 70% 0.00 mm 43.80 W/m2
17:34 31.0 °C 25.0 °C 1011.3 hPa WSW 18 km/h 24 km/h 70% 0.00 mm 37.68 W/m2
17:39 31.0 °C 25.0 °C 1011.3 hPa SW 15 km/h 24 km/h 69% 0.00 mm 32.42 W/m2
17:44 31.0 °C 25.0 °C 1011.3 hPa SW 23 km/h 32 km/h 70% 0.00 mm 26.42 W/m2
17:49 31.0 °C 25.0 °C 1011.5 hPa SW 29 km/h 36 km/h 71% 0.00 mm 23.36 W/m2
17:54 31.0 °C 25.0 °C 1011.6 hPa WSW 29 km/h 36 km/h 71% 0.00 mm 18.11 W/m2
17:59 31.0 °C 25.0 °C 1011.7 hPa SW 28 km/h 36 km/h 71% 0.00 mm 12.97 W/m2
18:04 31.0 °C 25.0 °C 1011.7 hPa SW 27 km/h 32 km/h 72% 0.00 mm 9.54 W/m2
18:09 31.0 °C 25.0 °C 1011.6 hPa SW 19 km/h 28 km/h 72% 0.00 mm 5.99 W/m2
18:14 31.0 °C 25.0 °C 1011.8 hPa WSW 14 km/h 20 km/h 71% 0.00 mm 2.08 W/m2
18:19 31.0 °C 25.0 °C 1011.8 hPa WSW 12 km/h 20 km/h 70% 0.00 mm 0.00 W/m2
18:24 31.0 °C 25.0 °C 1012.0 hPa West 6 km/h 8 km/h 70% 0.00 mm 0.00 W/m2
18:29 31.0 °C 25.0 °C 1012.0 hPa WSW 17 km/h 20 km/h 71% 0.00 mm 0.00 W/m2
18:34 31.0 °C 25.0 °C 1011.9 hPa West 11 km/h 16 km/h 72% 0.00 mm 0.00 W/m2
18:39 31.0 °C 25.0 °C 1012.0 hPa WSW 15 km/h 24 km/h 73% 0.00 mm 0.00 W/m2
18:44 31.0 °C 25.0 °C 1012.1 hPa WNW 10 km/h 16 km/h 72% 0.00 mm 0.00 W/m2
18:49 31.0 °C 25.0 °C 1012.1 hPa West 11 km/h 16 km/h 73% 0.00 mm 0.00 W/m2
18:54 31.0 °C 25.0 °C 1012.4 hPa WNW 17 km/h 20 km/h 73% 0.00 mm 0.00 W/m2
18:59 31.0 °C 25.0 °C 1012.4 hPa West 6 km/h 8 km/h 73% 0.00 mm 0.00 W/m2
19:04 31.0 °C 25.0 °C 1012.3 hPa WSW 13 km/h 16 km/h 73% 0.00 mm 0.00 W/m2
19:09 31.0 °C 25.0 °C 1012.4 hPa SW 12 km/h 20 km/h 73% 0.00 mm 0.00 W/m2
19:14 31.0 °C 25.0 °C 1012.5 hPa SW 15 km/h 16 km/h 73% 0.00 mm 0.00 W/m2
19:19 31.0 °C 25.0 °C 1012.6 hPa SW 14 km/h 16 km/h 74% 0.00 mm 0.00 W/m2
19:24 31.0 °C 26.0 °C 1012.7 hPa SW 23 km/h 28 km/h 75% 0.00 mm 0.00 W/m2
19:29 30.0 °C 26.0 °C 1012.7 hPa SW 23 km/h 36 km/h 78% 0.00 mm 0.00 W/m2
19:34 30.0 °C 26.0 °C 1012.8 hPa SW 24 km/h 36 km/h 79% 0.00 mm 0.00 W/m2
19:39 30.0 °C 26.0 °C 1012.8 hPa SW 23 km/h 32 km/h 80% 0.00 mm 0.00 W/m2
19:44 30.0 °C 26.0 °C 1012.9 hPa SW 29 km/h 40 km/h 80% 0.00 mm 0.00 W/m2
19:49 30.0 °C 26.0 °C 1012.9 hPa SW 23 km/h 32 km/h 79% 0.00 mm 0.00 W/m2
19:54 30.0 °C 26.0 °C 1013.1 hPa WNW 15 km/h 20 km/h 79% 0.00 mm 0.00 W/m2
19:59 30.0 °C 26.0 °C 1013.1 hPa SW 19 km/h 28 km/h 77% 0.00 mm 0.00 W/m2
20:04 30.0 °C 25.0 °C 1013.2 hPa WSW 17 km/h 24 km/h 77% 0.00 mm 0.00 W/m2
20:09 30.0 °C 25.0 °C 1013.4 hPa SW 14 km/h 20 km/h 76% 0.00 mm 0.00 W/m2
20:14 30.0 °C 25.0 °C 1013.4 hPa SW 12 km/h 16 km/h 76% 0.00 mm 0.00 W/m2
20:19 30.0 °C 26.0 °C 1013.5 hPa SW 21 km/h 28 km/h 77% 0.00 mm 0.00 W/m2
20:24 30.0 °C 26.0 °C 1013.4 hPa SW 15 km/h 20 km/h 77% 0.00 mm 0.00 W/m2
20:29 30.0 °C 25.0 °C 1013.4 hPa WSW 13 km/h 16 km/h 76% 0.00 mm 0.00 W/m2
20:34 30.0 °C 26.0 °C 1013.5 hPa SW 23 km/h 28 km/h 77% 0.00 mm 0.00 W/m2
20:39 30.0 °C 25.0 °C 1013.5 hPa SW 21 km/h 28 km/h 77% 0.00 mm 0.00 W/m2
20:44 30.0 °C 25.0 °C 1013.4 hPa SW 17 km/h 20 km/h 77% 0.00 mm 0.00 W/m2
20:49 30.0 °C 26.0 °C 1013.7 hPa WSW 18 km/h 20 km/h 78% 0.00 mm 0.00 W/m2
20:54 30.0 °C 26.0 °C 1013.6 hPa SW 18 km/h 24 km/h 78% 0.00 mm 0.00 W/m2
20:59 30.0 °C 26.0 °C 1013.5 hPa SW 20 km/h 24 km/h 78% 0.00 mm 0.00 W/m2
21:04 30.0 °C 26.0 °C 1013.7 hPa SW 13 km/h 20 km/h 78% 0.00 mm 0.00 W/m2
21:09 30.0 °C 26.0 °C 1013.7 hPa WSW 15 km/h 20 km/h 78% 0.00 mm 0.00 W/m2
21:14 30.0 °C 26.0 °C 1013.7 hPa SW 17 km/h 20 km/h 78% 0.00 mm 0.00 W/m2
21:19 30.0 °C 26.0 °C 1013.8 hPa SW 22 km/h 28 km/h 78% 0.00 mm 0.00 W/m2
21:24 30.0 °C 26.0 °C 1013.4 hPa SSW 17 km/h 20 km/h 78% 0.00 mm 0.00 W/m2
21:29 30.0 °C 25.0 °C 1013.5 hPa SSW 10 km/h 12 km/h 77% 0.00 mm 0.00 W/m2
21:34 30.0 °C 25.0 °C 1013.4 hPa SSW 20 km/h 24 km/h 77% 0.00 mm 0.00 W/m2
21:39 30.0 °C 25.0 °C 1013.4 hPa SSW 9 km/h 12 km/h 77% 0.00 mm 0.00 W/m2
21:44 30.0 °C 25.0 °C 1013.5 hPa SW 16 km/h 20 km/h 77% 0.00 mm 0.00 W/m2
21:49 30.0 °C 25.0 °C 1013.3 hPa WSW 10 km/h 20 km/h 77% 0.00 mm 0.00 W/m2
21:54 30.0 °C 25.0 °C 1013.5 hPa WSW 10 km/h 16 km/h 76% 0.00 mm 0.00 W/m2
21:59 30.0 °C 25.0 °C 1013.5 hPa West 14 km/h 20 km/h 76% 0.00 mm 0.00 W/m2
22:03 30.0 °C 25.0 °C 1013.7 hPa West 12 km/h 16 km/h 73% 0.00 mm 0.00 W/m2
22:09 30.0 °C 25.0 °C 1013.5 hPa WSW 5 km/h 8 km/h 74% 0.00 mm 0.00 W/m2
22:14 30.0 °C 25.0 °C 1013.5 hPa West 8 km/h 12 km/h 74% 0.00 mm 0.00 W/m2
22:19 30.0 °C 25.0 °C 1013.5 hPa NW 10 km/h 12 km/h 75% 0.00 mm 0.00 W/m2
22:24 30.0 °C 25.0 °C 1013.8 hPa West 4 km/h 8 km/h 75% 0.00 mm 0.00 W/m2
22:29 30.0 °C 25.0 °C 1013.8 hPa West 5 km/h 8 km/h 75% 0.00 mm 0.00 W/m2
22:34 30.0 °C 25.0 °C 1013.8 hPa West 2 km/h 4 km/h 75% 0.00 mm 0.00 W/m2
22:39 30.0 °C 25.0 °C 1013.6 hPa WSW 14 km/h 16 km/h 76% 0.00 mm 0.00 W/m2
22:44 30.0 °C 25.0 °C 1013.9 hPa WSW 9 km/h 16 km/h 76% 0.00 mm 0.00 W/m2
22:49 30.0 °C 25.0 °C 1013.9 hPa WSW 5 km/h 8 km/h 76% 0.00 mm 0.00 W/m2
22:54 30.0 °C 25.0 °C 1013.7 hPa West 4 km/h 4 km/h 76% 0.00 mm 0.00 W/m2
22:59 30.0 °C 25.0 °C 1013.7 hPa SSW 10 km/h 12 km/h 77% 0.00 mm 0.00 W/m2
23:04 30.0 °C 25.0 °C 1013.6 hPa SSW 14 km/h 16 km/h 76% 0.00 mm 0.00 W/m2
23:09 30.0 °C 25.0 °C 1013.5 hPa SSW 13 km/h 16 km/h 77% 0.00 mm 0.00 W/m2
23:14 30.0 °C 25.0 °C 1013.5 hPa SSW 15 km/h 20 km/h 76% 0.00 mm 0.00 W/m2
23:19 30.0 °C 25.0 °C 1013.5 hPa South 24 km/h 32 km/h 76% 0.00 mm 0.00 W/m2
23:24 30.0 °C 25.0 °C 1013.5 hPa SSW 16 km/h 20 km/h 76% 0.00 mm 0.00 W/m2
23:29 30.0 °C 25.0 °C 1013.3 hPa WSW 14 km/h 20 km/h 77% 0.00 mm 0.00 W/m2
23:34 30.0 °C 25.0 °C 1013.4 hPa WSW 12 km/h 16 km/h 77% 0.00 mm 0.00 W/m2
23:39 30.0 °C 25.0 °C 1013.2 hPa WSW 9 km/h 12 km/h 76% 0.00 mm 0.00 W/m2
23:44 30.0 °C 25.0 °C 1013.2 hPa NW 10 km/h 12 km/h 77% 0.00 mm 0.00 W/m2
23:45 29.0 °C 25.0 °C 1013.2 hPa NNW 13 km/h 16 km/h 77% 0.00 mm 0.00 W/m2
23:54 29.0 °C 25.0 °C 1013.1 hPa NW 10 km/h 12 km/h 78% 0.00 mm 0.00 W/m2
23:59 29.0 °C 25.0 °C 1013.2 hPa NNW 9 km/h 16 km/h 78% 0.00 mm 0.00 W/m2
PIMOHWEATHER Philippines
Compliments of Weather Underground - 2 mb